sensor_id;sensor_type;location;lat;lon;timestamp;pressure;altitude;pressure_sealevel;temperature;humidity
74578;BME280;75151;49.086;33.418;2024-03-08T00:00:07;101298.13;;;-3.60;42.39
74578;BME280;75151;49.086;33.418;2024-03-08T00:02:47;101302.16;;;-3.51;42.62
74578;BME280;75151;49.086;33.418;2024-03-08T00:05:14;101299.13;;;-3.03;40.24
74578;BME280;75151;49.086;33.418;2024-03-08T00:07:42;101297.78;;;-3.64;43.07
74578;BME280;75151;49.086;33.418;2024-03-08T00:10:11;101311.25;;;-4.10;42.75
74578;BME280;75151;49.086;33.418;2024-03-08T00:12:42;101309.72;;;-3.94;42.52
74578;BME280;75151;49.086;33.418;2024-03-08T00:15:09;101308.34;;;-4.38;43.68
74578;BME280;75151;49.086;33.418;2024-03-08T00:17:37;101300.59;;;-3.36;41.38
74578;BME280;75151;49.086;33.418;2024-03-08T00:20:05;101301.53;;;-3.88;41.51
74578;BME280;75151;49.086;33.418;2024-03-08T00:22:35;101302.75;;;-2.98;41.22
74578;BME280;75151;49.086;33.418;2024-03-08T00:25:03;101300.34;;;-3.22;42.00
74578;BME280;75151;49.086;33.418;2024-03-08T00:27:30;101298.94;;;-3.25;41.86
74578;BME280;75151;49.086;33.418;2024-03-08T00:29:57;101285.47;;;-3.48;40.98
74578;BME280;75151;49.086;33.418;2024-03-08T00:32:24;101297.78;;;-3.52;41.85
74578;BME280;75151;49.086;33.418;2024-03-08T00:34:51;101292.28;;;-3.80;42.31
74578;BME280;75151;49.086;33.418;2024-03-08T00:37:18;101286.50;;;-3.38;41.73
74578;BME280;75151;49.086;33.418;2024-03-08T00:39:45;101291.81;;;-3.77;42.08
74578;BME280;75151;49.086;33.418;2024-03-08T00:42:12;101284.53;;;-3.42;41.88
74578;BME280;75151;49.086;33.418;2024-03-08T00:44:40;101276.44;;;-3.88;42.94
74578;BME280;75151;49.086;33.418;2024-03-08T00:47:07;101282.91;;;-3.89;42.37
74578;BME280;75151;49.086;33.418;2024-03-08T00:49:34;101279.16;;;-3.77;42.30
74578;BME280;75151;49.086;33.418;2024-03-08T00:52:01;101277.59;;;-3.96;42.38
74578;BME280;75151;49.086;33.418;2024-03-08T00:54:28;101268.84;;;-3.68;42.90
74578;BME280;75151;49.086;33.418;2024-03-08T00:56:54;101267.66;;;-3.49;41.40
74578;BME280;75151;49.086;33.418;2024-03-08T00:59:21;101268.91;;;-3.28;41.61
74578;BME280;75151;49.086;33.418;2024-03-08T01:01:48;101264.31;;;-3.40;41.35
74578;BME280;75151;49.086;33.418;2024-03-08T01:04:15;101261.31;;;-3.89;42.09
74578;BME280;75151;49.086;33.418;2024-03-08T01:06:42;101257.31;;;-3.52;41.63
74578;BME280;75151;49.086;33.418;2024-03-08T01:09:12;101267.25;;;-3.41;41.67
74578;BME280;75151;49.086;33.418;2024-03-08T01:11:39;101253.69;;;-3.58;42.40
74578;BME280;75151;49.086;33.418;2024-03-08T01:14:06;101258.03;;;-3.68;42.41
74578;BME280;75151;49.086;33.418;2024-03-08T01:16:33;101269.97;;;-3.64;42.21
74578;BME280;75151;49.086;33.418;2024-03-08T01:19:00;101265.06;;;-3.56;42.29
74578;BME280;75151;49.086;33.418;2024-03-08T01:21:27;101265.41;;;-3.52;41.73
74578;BME280;75151;49.086;33.418;2024-03-08T01:23:53;101268.44;;;-3.25;41.60
74578;BME280;75151;49.086;33.418;2024-03-08T01:26:20;101265.91;;;-3.78;41.88
74578;BME280;75151;49.086;33.418;2024-03-08T01:28:47;101260.50;;;-3.67;41.64
74578;BME280;75151;49.086;33.418;2024-03-08T01:31:14;101252.72;;;-3.40;42.36
74578;BME280;75151;49.086;33.418;2024-03-08T01:33:41;101260.72;;;-4.03;42.81
74578;BME280;75151;49.086;33.418;2024-03-08T01:36:08;101261.50;;;-3.33;41.47
74578;BME280;75151;49.086;33.418;2024-03-08T01:38:35;101263.19;;;-3.55;41.73
74578;BME280;75151;49.086;33.418;2024-03-08T01:41:03;101256.03;;;-3.50;42.22
74578;BME280;75151;49.086;33.418;2024-03-08T01:43:30;101255.91;;;-3.55;41.70
74578;BME280;75151;49.086;33.418;2024-03-08T01:45:58;101266.63;;;-3.08;41.15
74578;BME280;75151;49.086;33.418;2024-03-08T01:48:26;101254.53;;;-3.06;42.18
74578;BME280;75151;49.086;33.418;2024-03-08T01:50:55;101257.94;;;-2.54;39.92
74578;BME280;75151;49.086;33.418;2024-03-08T01:53:23;101256.28;;;-3.63;42.08
74578;BME280;75151;49.086;33.418;2024-03-08T01:55:52;101250.63;;;-3.84;42.99
74578;BME280;75151;49.086;33.418;2024-03-08T01:58:21;101250.34;;;-3.25;41.75
74578;BME280;75151;49.086;33.418;2024-03-08T02:00:49;101260.13;;;-3.47;41.64
74578;BME280;75151;49.086;33.418;2024-03-08T02:03:16;101256.88;;;-3.61;42.30
74578;BME280;75151;49.086;33.418;2024-03-08T02:05:43;101251.97;;;-3.24;41.56
74578;BME280;75151;49.086;33.418;2024-03-08T02:08:11;101261.75;;;-3.35;42.05
74578;BME280;75151;49.086;33.418;2024-03-08T02:10:41;101258.38;;;-3.42;40.91
74578;BME280;75151;49.086;33.418;2024-03-08T02:13:09;101253.59;;;-3.11;40.44
74578;BME280;75151;49.086;33.418;2024-03-08T02:15:55;101250.63;;;-3.38;41.24
74578;BME280;75151;49.086;33.418;2024-03-08T02:18:23;101252.84;;;-2.95;40.34
74578;BME280;75151;49.086;33.418;2024-03-08T02:20:58;101256.91;;;-3.09;40.59
74578;BME280;75151;49.086;33.418;2024-03-08T02:23:26;101256.00;;;-3.38;40.66
74578;BME280;75151;49.086;33.418;2024-03-08T02:25:54;101247.41;;;-3.23;40.39
74578;BME280;75151;49.086;33.418;2024-03-08T02:28:23;101252.88;;;-3.07;41.21
74578;BME280;75151;49.086;33.418;2024-03-08T02:30:52;101243.72;;;-3.69;41.87
74578;BME280;75151;49.086;33.418;2024-03-08T02:33:24;101246.94;;;-3.32;41.62
74578;BME280;75151;49.086;33.418;2024-03-08T02:35:51;101245.81;;;-2.96;40.51
74578;BME280;75151;49.086;33.418;2024-03-08T02:38:20;101244.38;;;-3.39;40.95
74578;BME280;75151;49.086;33.418;2024-03-08T02:40:49;101237.19;;;-4.37;42.22
74578;BME280;75151;49.086;33.418;2024-03-08T02:43:18;101240.41;;;-3.48;41.12
74578;BME280;75151;49.086;33.418;2024-03-08T02:45:45;101238.47;;;-3.98;41.23
74578;BME280;75151;49.086;33.418;2024-03-08T02:48:13;101231.06;;;-3.57;41.67
74578;BME280;75151;49.086;33.418;2024-03-08T02:50:40;101226.13;;;-3.83;41.88
74578;BME280;75151;49.086;33.418;2024-03-08T02:53:09;101228.34;;;-4.14;43.07
74578;BME280;75151;49.086;33.418;2024-03-08T02:55:40;101223.44;;;-4.06;42.47
74578;BME280;75151;49.086;33.418;2024-03-08T02:58:08;101228.19;;;-4.31;43.36
74578;BME280;75151;49.086;33.418;2024-03-08T03:00:38;101224.25;;;-3.82;42.37
74578;BME280;75151;49.086;33.418;2024-03-08T03:03:08;101225.94;;;-4.34;42.53
74578;BME280;75151;49.086;33.418;2024-03-08T03:05:35;101226.34;;;-4.07;42.32
74578;BME280;75151;49.086;33.418;2024-03-08T03:08:02;101219.78;;;-4.11;42.78
74578;BME280;75151;49.086;33.418;2024-03-08T03:10:36;101217.75;;;-4.28;43.09
74578;BME280;75151;49.086;33.418;2024-03-08T03:13:03;101226.75;;;-4.34;42.41
74578;BME280;75151;49.086;33.418;2024-03-08T03:15:31;101215.69;;;-4.14;43.61
74578;BME280;75151;49.086;33.418;2024-03-08T03:17:58;101220.53;;;-3.93;41.73
74578;BME280;75151;49.086;33.418;2024-03-08T03:20:25;101223.25;;;-4.34;42.75
74578;BME280;75151;49.086;33.418;2024-03-08T03:23:00;101224.81;;;-3.57;42.04
74578;BME280;75151;49.086;33.418;2024-03-08T03:25:30;101224.19;;;-4.29;42.47
74578;BME280;75151;49.086;33.418;2024-03-08T03:28:02;101227.66;;;-4.10;42.52
74578;BME280;75151;49.086;33.418;2024-03-08T03:30:29;101222.50;;;-4.53;44.19
74578;BME280;75151;49.086;33.418;2024-03-08T03:33:00;101218.91;;;-4.35;42.93
74578;BME280;75151;49.086;33.418;2024-03-08T03:35:28;101226.53;;;-4.32;42.78
74578;BME280;75151;49.086;33.418;2024-03-08T03:37:56;101220.34;;;-4.74;43.21
74578;BME280;75151;49.086;33.418;2024-03-08T03:40:38;101220.91;;;-4.42;42.53
74578;BME280;75151;49.086;33.418;2024-03-08T03:43:06;101214.66;;;-4.54;43.05
74578;BME280;75151;49.086;33.418;2024-03-08T03:45:34;101217.00;;;-3.82;42.53
74578;BME280;75151;49.086;33.418;2024-03-08T03:48:04;101209.38;;;-4.08;41.98
74578;BME280;75151;49.086;33.418;2024-03-08T03:50:35;101213.00;;;-4.14;42.09
74578;BME280;75151;49.086;33.418;2024-03-08T03:53:03;101213.84;;;-4.43;42.55
74578;BME280;75151;49.086;33.418;2024-03-08T03:55:31;101216.16;;;-3.59;42.15
74578;BME280;75151;49.086;33.418;2024-03-08T03:57:57;101217.69;;;-3.75;41.54
74578;BME280;75151;49.086;33.418;2024-03-08T04:00:26;101223.75;;;-3.56;41.05
74578;BME280;75151;49.086;33.418;2024-03-08T04:02:54;101218.28;;;-3.96;42.07
74578;BME280;75151;49.086;33.418;2024-03-08T04:05:21;101214.19;;;-4.10;43.02
74578;BME280;75151;49.086;33.418;2024-03-08T04:07:48;101218.88;;;-4.58;42.76
74578;BME280;75151;49.086;33.418;2024-03-08T04:10:15;101217.34;;;-3.90;42.70
74578;BME280;75151;49.086;33.418;2024-03-08T04:12:42;101226.81;;;-3.64;40.65
74578;BME280;75151;49.086;33.418;2024-03-08T04:15:09;101215.53;;;-3.38;40.91
74578;BME280;75151;49.086;33.418;2024-03-08T04:17:38;101226.31;;;-3.38;40.33
74578;BME280;75151;49.086;33.418;2024-03-08T04:20:05;101223.56;;;-3.66;41.73
74578;BME280;75151;49.086;33.418;2024-03-08T04:22:37;101222.38;;;-4.05;41.94
74578;BME280;75151;49.086;33.418;2024-03-08T04:25:06;101225.25;;;-4.30;43.02
74578;BME280;75151;49.086;33.418;2024-03-08T04:27:33;101222.66;;;-4.77;43.15
74578;BME280;75151;49.086;33.418;2024-03-08T04:30:04;101217.53;;;-4.26;41.39
74578;BME280;75151;49.086;33.418;2024-03-08T04:32:34;101221.22;;;-3.86;41.02
74578;BME280;75151;49.086;33.418;2024-03-08T04:35:01;101216.06;;;-3.99;41.42
74578;BME280;75151;49.086;33.418;2024-03-08T04:37:30;101221.56;;;-3.71;40.73
74578;BME280;75151;49.086;33.418;2024-03-08T04:39:57;101219.34;;;-3.74;40.96
74578;BME280;75151;49.086;33.418;2024-03-08T04:42:24;101218.25;;;-3.50;40.70
74578;BME280;75151;49.086;33.418;2024-03-08T04:44:52;101218.88;;;-3.19;40.61
74578;BME280;75151;49.086;33.418;2024-03-08T04:47:20;101216.13;;;-3.48;40.07
74578;BME280;75151;49.086;33.418;2024-03-08T04:49:47;101214.16;;;-3.87;40.77
74578;BME280;75151;49.086;33.418;2024-03-08T04:52:14;101213.19;;;-4.27;41.52
74578;BME280;75151;49.086;33.418;2024-03-08T04:54:40;101212.03;;;-3.85;41.54
74578;BME280;75151;49.086;33.418;2024-03-08T04:57:07;101215.88;;;-3.35;40.54
74578;BME280;75151;49.086;33.418;2024-03-08T04:59:35;101210.25;;;-3.45;40.22
74578;BME280;75151;49.086;33.418;2024-03-08T05:02:03;101207.31;;;-4.24;42.25
74578;BME280;75151;49.086;33.418;2024-03-08T05:04:30;101204.59;;;-3.43;40.34
74578;BME280;75151;49.086;33.418;2024-03-08T05:06:57;101205.47;;;-4.23;41.70
74578;BME280;75151;49.086;33.418;2024-03-08T05:09:24;101203.41;;;-3.98;41.72
74578;BME280;75151;49.086;33.418;2024-03-08T05:11:50;101206.09;;;-4.10;42.43
74578;BME280;75151;49.086;33.418;2024-03-08T05:14:17;101207.09;;;-4.46;41.95
74578;BME280;75151;49.086;33.418;2024-03-08T05:16:47;101209.72;;;-4.04;42.32
74578;BME280;75151;49.086;33.418;2024-03-08T05:19:17;101214.28;;;-3.93;42.06
74578;BME280;75151;49.086;33.418;2024-03-08T05:21:46;101213.34;;;-4.10;41.72
74578;BME280;75151;49.086;33.418;2024-03-08T05:24:13;101214.38;;;-4.23;41.90
74578;BME280;75151;49.086;33.418;2024-03-08T05:26:41;101207.19;;;-4.41;41.56
74578;BME280;75151;49.086;33.418;2024-03-08T05:29:08;101204.38;;;-4.22;42.76
74578;BME280;75151;49.086;33.418;2024-03-08T05:31:45;101215.72;;;-3.91;42.05
74578;BME280;75151;49.086;33.418;2024-03-08T05:34:13;101221.44;;;-3.99;40.25
74578;BME280;75151;49.086;33.418;2024-03-08T05:36:41;101215.56;;;-3.84;41.08
74578;BME280;75151;49.086;33.418;2024-03-08T05:39:13;101225.28;;;-3.60;40.64
74578;BME280;75151;49.086;33.418;2024-03-08T05:41:44;101211.41;;;-4.86;42.46
74578;BME280;75151;49.086;33.418;2024-03-08T05:44:11;101217.44;;;-4.61;42.96
74578;BME280;75151;49.086;33.418;2024-03-08T05:46:38;101227.78;;;-3.82;40.86
74578;BME280;75151;49.086;33.418;2024-03-08T05:49:06;101224.91;;;-4.33;41.55
74578;BME280;75151;49.086;33.418;2024-03-08T05:51:34;101225.00;;;-4.40;42.09
74578;BME280;75151;49.086;33.418;2024-03-08T05:54:09;101214.34;;;-4.46;42.11
74578;BME280;75151;49.086;33.418;2024-03-08T05:56:39;101212.53;;;-4.11;41.42
74578;BME280;75151;49.086;33.418;2024-03-08T05:59:09;101214.28;;;-3.59;39.39
74578;BME280;75151;49.086;33.418;2024-03-08T06:01:36;101214.06;;;-3.17;39.12
74578;BME280;75151;49.086;33.418;2024-03-08T06:04:03;101214.28;;;-3.70;40.30
74578;BME280;75151;49.086;33.418;2024-03-08T06:06:30;101219.09;;;-3.84;39.74
74578;BME280;75151;49.086;33.418;2024-03-08T06:08:57;101208.84;;;-3.07;39.04
74578;BME280;75151;49.086;33.418;2024-03-08T06:11:25;101208.88;;;-4.16;40.83
74578;BME280;75151;49.086;33.418;2024-03-08T06:13:57;101206.47;;;-4.59;42.72
74578;BME280;75151;49.086;33.418;2024-03-08T06:16:27;101206.31;;;-4.64;41.20
74578;BME280;75151;49.086;33.418;2024-03-08T06:18:57;101205.09;;;-4.39;42.37
74578;BME280;75151;49.086;33.418;2024-03-08T06:21:24;101206.56;;;-4.01;40.46
74578;BME280;75151;49.086;33.418;2024-03-08T06:23:54;101207.38;;;-4.12;41.44
74578;BME280;75151;49.086;33.418;2024-03-08T06:26:21;101210.22;;;-4.49;41.52
74578;BME280;75151;49.086;33.418;2024-03-08T06:28:48;101215.06;;;-3.58;40.29
74578;BME280;75151;49.086;33.418;2024-03-08T06:31:15;101216.75;;;-4.03;41.52
74578;BME280;75151;49.086;33.418;2024-03-08T06:33:42;101216.25;;;-4.23;40.82
74578;BME280;75151;49.086;33.418;2024-03-08T06:36:09;101215.47;;;-3.89;41.53
74578;BME280;75151;49.086;33.418;2024-03-08T06:38:38;101218.38;;;-3.68;40.72
74578;BME280;75151;49.086;33.418;2024-03-08T06:41:09;101216.53;;;-3.27;39.02
74578;BME280;75151;49.086;33.418;2024-03-08T06:43:45;101217.03;;;-3.30;39.09
74578;BME280;75151;49.086;33.418;2024-03-08T06:46:16;101217.34;;;-2.87;38.79
74578;BME280;75151;49.086;33.418;2024-03-08T06:48:44;101223.81;;;-3.91;40.67
74578;BME280;75151;49.086;33.418;2024-03-08T06:51:12;101222.47;;;-3.54;39.65
74578;BME280;75151;49.086;33.418;2024-03-08T06:53:41;101224.69;;;-4.20;40.87
74578;BME280;75151;49.086;33.418;2024-03-08T06:56:08;101226.63;;;-4.50;40.70
74578;BME280;75151;49.086;33.418;2024-03-08T06:58:35;101236.28;;;-4.19;40.95
74578;BME280;75151;49.086;33.418;2024-03-08T07:01:02;101235.38;;;-3.56;38.96
74578;BME280;75151;49.086;33.418;2024-03-08T07:03:31;101230.91;;;-4.72;40.95
74578;BME280;75151;49.086;33.418;2024-03-08T07:05:59;101228.47;;;-3.63;38.85
74578;BME280;75151;49.086;33.418;2024-03-08T07:08:28;101232.78;;;-3.51;39.37
74578;BME280;75151;49.086;33.418;2024-03-08T07:10:55;101225.28;;;-3.60;38.45
74578;BME280;75151;49.086;33.418;2024-03-08T07:13:22;101230.22;;;-3.46;38.70
74578;BME280;75151;49.086;33.418;2024-03-08T07:15:48;101229.72;;;-3.43;37.86
74578;BME280;75151;49.086;33.418;2024-03-08T07:18:15;101220.53;;;-4.34;40.29
74578;BME280;75151;49.086;33.418;2024-03-08T07:20:42;101219.84;;;-5.12;42.63
74578;BME280;75151;49.086;33.418;2024-03-08T07:23:10;101218.22;;;-4.42;41.04
74578;BME280;75151;49.086;33.418;2024-03-08T07:25:37;101223.47;;;-4.36;39.55
74578;BME280;75151;49.086;33.418;2024-03-08T07:28:06;101216.69;;;-4.27;40.72
74578;BME280;75151;49.086;33.418;2024-03-08T07:30:38;101213.50;;;-4.47;41.10
74578;BME280;75151;49.086;33.418;2024-03-08T07:33:11;101209.03;;;-4.53;40.81
74578;BME280;75151;49.086;33.418;2024-03-08T07:35:40;101219.25;;;-4.84;42.34
74578;BME280;75151;49.086;33.418;2024-03-08T07:38:08;101219.16;;;-4.37;41.56
74578;BME280;75151;49.086;33.418;2024-03-08T07:40:36;101217.66;;;-3.63;38.79
74578;BME280;75151;49.086;33.418;2024-03-08T07:43:08;101216.81;;;-2.56;37.96
74578;BME280;75151;49.086;33.418;2024-03-08T07:45:35;101212.81;;;-2.98;37.59
74578;BME280;75151;49.086;33.418;2024-03-08T07:49:44;101219.28;;;-3.51;38.90
74578;BME280;75151;49.086;33.418;2024-03-08T07:52:11;101219.28;;;-3.51;39.39
74578;BME280;75151;49.086;33.418;2024-03-08T07:54:42;101221.56;;;-3.71;39.69
74578;BME280;75151;49.086;33.418;2024-03-08T07:57:09;101211.81;;;-3.72;39.04
74578;BME280;75151;49.086;33.418;2024-03-08T07:59:36;101207.13;;;-3.13;38.71
74578;BME280;75151;49.086;33.418;2024-03-08T08:02:03;101210.16;;;-3.50;38.77
74578;BME280;75151;49.086;33.418;2024-03-08T08:04:30;101205.38;;;-4.05;39.14
74578;BME280;75151;49.086;33.418;2024-03-08T08:06:57;101212.19;;;-4.03;40.74
74578;BME280;75151;49.086;33.418;2024-03-08T08:09:24;101206.91;;;-2.51;37.39
74578;BME280;75151;49.086;33.418;2024-03-08T08:12:01;101203.81;;;-4.25;40.99
74578;BME280;75151;49.086;33.418;2024-03-08T08:14:30;101206.09;;;-4.10;40.70
74578;BME280;75151;49.086;33.418;2024-03-08T08:16:57;101211.59;;;-3.82;39.52
74578;BME280;75151;49.086;33.418;2024-03-08T08:19:27;101198.16;;;-2.58;37.87
74578;BME280;75151;49.086;33.418;2024-03-08T08:21:54;101194.63;;;-2.08;36.39
74578;BME280;75151;49.086;33.418;2024-03-08T08:24:21;101190.53;;;-2.61;37.26
74578;BME280;75151;49.086;33.418;2024-03-08T08:26:48;101201.28;;;-2.32;36.89
74578;BME280;75151;49.086;33.418;2024-03-08T08:29:15;101199.19;;;-3.32;38.19
74578;BME280;75151;49.086;33.418;2024-03-08T08:31:42;101195.38;;;-2.46;36.85
74578;BME280;75151;49.086;33.418;2024-03-08T08:34:09;101197.06;;;-3.29;38.68
74578;BME280;75151;49.086;33.418;2024-03-08T08:36:38;101197.72;;;-3.22;38.58
74578;BME280;75151;49.086;33.418;2024-03-08T08:39:05;101204.22;;;-2.95;38.45
74578;BME280;75151;49.086;33.418;2024-03-08T08:41:42;101196.31;;;-3.13;38.57
74578;BME280;75151;49.086;33.418;2024-03-08T08:44:09;101198.00;;;-3.36;38.33
74578;BME280;75151;49.086;33.418;2024-03-08T08:46:42;101196.59;;;-3.78;39.72
74578;BME280;75151;49.086;33.418;2024-03-08T08:49:09;101190.66;;;-4.56;41.22
74578;BME280;75151;49.086;33.418;2024-03-08T08:51:37;101193.19;;;-3.34;39.79
74578;BME280;75151;49.086;33.418;2024-03-08T08:54:05;101187.09;;;-3.01;38.13
74578;BME280;75151;49.086;33.418;2024-03-08T08:56:37;101184.53;;;-2.79;37.63
74578;BME280;75151;49.086;33.418;2024-03-08T08:59:04;101174.16;;;-2.54;38.71
74578;BME280;75151;49.086;33.418;2024-03-08T09:01:31;101167.63;;;-1.70;35.64
74578;BME280;75151;49.086;33.418;2024-03-08T09:03:58;101175.31;;;-1.79;36.10
74578;BME280;75151;49.086;33.418;2024-03-08T09:06:25;101166.03;;;-1.01;35.96
74578;BME280;75151;49.086;33.418;2024-03-08T09:08:52;101177.84;;;-2.44;36.39
74578;BME280;75151;49.086;33.418;2024-03-08T09:11:19;101179.91;;;-2.34;36.94
74578;BME280;75151;49.086;33.418;2024-03-08T09:13:46;101182.69;;;-2.90;37.96
74578;BME280;75151;49.086;33.418;2024-03-08T09:16:13;101176.28;;;-3.01;38.76
74578;BME280;75151;49.086;33.418;2024-03-08T09:18:40;101172.50;;;-2.05;36.60
74578;BME280;75151;49.086;33.418;2024-03-08T09:21:08;101168.25;;;-1.41;36.35
74578;BME280;75151;49.086;33.418;2024-03-08T09:23:39;101168.50;;;-1.65;36.06
74578;BME280;75151;49.086;33.418;2024-03-08T09:26:08;101172.72;;;-1.74;36.47
74578;BME280;75151;49.086;33.418;2024-03-08T09:28:48;101174.38;;;-1.51;34.98
74578;BME280;75151;49.086;33.418;2024-03-08T09:31:15;101162.22;;;-1.00;33.91
74578;BME280;75151;49.086;33.418;2024-03-08T09:33:42;101167.09;;;-1.02;35.27
74578;BME280;75151;49.086;33.418;2024-03-08T09:36:09;101169.50;;;-0.79;33.63
74578;BME280;75151;49.086;33.418;2024-03-08T09:38:36;101173.59;;;-1.03;35.77
74578;BME280;75151;49.086;33.418;2024-03-08T09:41:02;101160.25;;;-1.91;36.13
74578;BME280;75151;49.086;33.418;2024-03-08T09:43:30;101166.78;;;-2.42;36.32
74578;BME280;75151;49.086;33.418;2024-03-08T09:45:57;101158.94;;;-1.72;36.73
74578;BME280;75151;49.086;33.418;2024-03-08T09:48:26;101159.50;;;-1.70;36.11
74578;BME280;75151;49.086;33.418;2024-03-08T09:50:52;101154.78;;;-1.58;36.34
74578;BME280;75151;49.086;33.418;2024-03-08T09:53:20;101156.47;;;-1.09;34.65
74578;BME280;75151;49.086;33.418;2024-03-08T09:55:49;101153.19;;;-1.54;35.59
74578;BME280;75151;49.086;33.418;2024-03-08T09:58:16;101150.94;;;-1.79;35.74
74578;BME280;75151;49.086;33.418;2024-03-08T10:01:03;101154.81;;;-1.75;36.25
74578;BME280;75151;49.086;33.418;2024-03-08T10:03:31;101138.97;;;-1.45;34.61
74578;BME280;75151;49.086;33.418;2024-03-08T10:05:59;101142.25;;;-0.63;34.20
74578;BME280;75151;49.086;33.418;2024-03-08T10:08:29;101135.03;;;-0.15;32.97
74578;BME280;75151;49.086;33.418;2024-03-08T10:10:56;101139.84;;;0.14;32.35
74578;BME280;75151;49.086;33.418;2024-03-08T10:13:26;101134.59;;;-0.39;33.03
74578;BME280;75151;49.086;33.418;2024-03-08T10:15:54;101134.44;;;0.19;32.50
74578;BME280;75151;49.086;33.418;2024-03-08T10:18:21;101133.31;;;0.77;32.22
74578;BME280;75151;49.086;33.418;2024-03-08T10:21:05;101130.66;;;1.07;30.68
74578;BME280;75151;49.086;33.418;2024-03-08T10:23:34;101127.22;;;0.40;30.88
74578;BME280;75151;49.086;33.418;2024-03-08T10:26:14;101115.19;;;1.28;30.83
74578;BME280;75151;49.086;33.418;2024-03-08T10:28:46;101123.78;;;-0.34;34.54
74578;BME280;75151;49.086;33.418;2024-03-08T10:31:17;101116.66;;;-0.03;33.90
74578;BME280;75151;49.086;33.418;2024-03-08T10:33:45;101112.94;;;-1.24;35.80
74578;BME280;75151;49.086;33.418;2024-03-08T10:36:15;101111.31;;;-0.98;34.03
74578;BME280;75151;49.086;33.418;2024-03-08T10:38:43;101107.28;;;-1.22;34.58
74578;BME280;75151;49.086;33.418;2024-03-08T10:41:15;101094.19;;;1.99;31.17
74578;BME280;75151;49.086;33.418;2024-03-08T10:49:18;101090.84;;;2.22;30.14
74578;BME280;75151;49.086;33.418;2024-03-08T10:51:47;101089.34;;;1.56;30.53
74578;BME280;75151;49.086;33.418;2024-03-08T10:54:19;101079.28;;;1.56;30.99
74578;BME280;75151;49.086;33.418;2024-03-08T10:56:48;101080.84;;;1.92;29.84
74578;BME280;75151;49.086;33.418;2024-03-08T10:59:18;101082.66;;;2.27;29.87
74578;BME280;75151;49.086;33.418;2024-03-08T11:01:46;101081.88;;;2.16;30.26
74578;BME280;75151;49.086;33.418;2024-03-08T11:04:14;101098.03;;;1.02;31.27
74578;BME280;75151;49.086;33.418;2024-03-08T11:06:42;101070.56;;;0.89;31.19
74578;BME280;75151;49.086;33.418;2024-03-08T11:09:28;101069.44;;;1.90;30.81
74578;BME280;75151;49.086;33.418;2024-03-08T11:12:25;101075.97;;;1.79;29.70
74578;BME280;75151;49.086;33.418;2024-03-08T11:14:53;101068.34;;;0.56;32.85
74578;BME280;75151;49.086;33.418;2024-03-08T11:17:25;101067.59;;;0.08;32.23
74578;BME280;75151;49.086;33.418;2024-03-08T11:19:57;101064.31;;;1.03;31.18
74578;BME280;75151;49.086;33.418;2024-03-08T11:22:31;101060.22;;;1.66;29.81
74578;BME280;75151;49.086;33.418;2024-03-08T11:25:04;101061.53;;;2.58;29.34
74578;BME280;75151;49.086;33.418;2024-03-08T11:27:37;101061.19;;;2.10;29.81
74578;BME280;75151;49.086;33.418;2024-03-08T11:30:06;101056.69;;;2.45;29.83
74578;BME280;75151;49.086;33.418;2024-03-08T11:32:47;101053.25;;;2.24;29.90
74578;BME280;75151;49.086;33.418;2024-03-08T11:35:19;101046.38;;;1.37;30.37
74578;BME280;75151;49.086;33.418;2024-03-08T11:37:47;101052.06;;;1.71;30.34
74578;BME280;75151;49.086;33.418;2024-03-08T11:40:15;101034.25;;;2.96;28.42
74578;BME280;75151;49.086;33.418;2024-03-08T11:42:47;101036.31;;;2.76;29.09
74578;BME280;75151;49.086;33.418;2024-03-08T11:45:15;101035.41;;;3.81;27.82
74578;BME280;75151;49.086;33.418;2024-03-08T11:47:44;101048.88;;;2.77;29.36
74578;BME280;75151;49.086;33.418;2024-03-08T11:50:16;101041.44;;;3.26;28.43
74578;BME280;75151;49.086;33.418;2024-03-08T11:52:46;101036.66;;;3.65;27.92
74578;BME280;75151;49.086;33.418;2024-03-08T11:55:13;101038.16;;;4.29;27.47
74578;BME280;75151;49.086;33.418;2024-03-08T11:57:40;101038.31;;;4.13;26.91
74578;BME280;75151;49.086;33.418;2024-03-08T12:00:16;101033.63;;;2.71;29.35
74578;BME280;75151;49.086;33.418;2024-03-08T12:03:06;101023.56;;;3.67;27.26
74578;BME280;75151;49.086;33.418;2024-03-08T12:05:33;101018.91;;;2.23;29.09
74578;BME280;75151;49.086;33.418;2024-03-08T12:08:02;101015.59;;;1.72;30.70
74578;BME280;75151;49.086;33.418;2024-03-08T12:10:29;101011.97;;;3.52;27.55
74578;BME280;75151;49.086;33.418;2024-03-08T12:12:58;101009.94;;;2.66;29.12
74578;BME280;75151;49.086;33.418;2024-03-08T12:15:31;101020.75;;;3.20;29.10
74578;BME280;75151;49.086;33.418;2024-03-08T12:18:00;101010.91;;;2.42;29.50
74578;BME280;75151;49.086;33.418;2024-03-08T12:20:28;101010.31;;;2.55;29.79
74578;BME280;75151;49.086;33.418;2024-03-08T12:22:59;101012.91;;;1.42;31.07
74578;BME280;75151;49.086;33.418;2024-03-08T12:25:35;101007.53;;;2.16;29.94
74578;BME280;75151;49.086;33.418;2024-03-08T12:28:09;101006.97;;;3.01;28.51
74578;BME280;75151;49.086;33.418;2024-03-08T12:33:14;101008.59;;;3.02;28.77
74578;BME280;75151;49.086;33.418;2024-03-08T12:35:50;101005.00;;;1.51;30.08
74578;BME280;75151;49.086;33.418;2024-03-08T12:38:21;100999.66;;;2.14;29.68
74578;BME280;75151;49.086;33.418;2024-03-08T12:41:00;100992.41;;;3.16;28.94
74578;BME280;75151;49.086;33.418;2024-03-08T12:43:28;100990.78;;;3.15;28.70
74578;BME280;75151;49.086;33.418;2024-03-08T12:46:00;100993.50;;;2.43;29.69
74578;BME280;75151;49.086;33.418;2024-03-08T12:48:27;100986.81;;;2.64;29.31
74578;BME280;75151;49.086;33.418;2024-03-08T12:50:54;100986.47;;;3.61;28.55
74578;BME280;75151;49.086;33.418;2024-03-08T12:53:22;100980.56;;;4.44;26.50
74578;BME280;75151;49.086;33.418;2024-03-08T12:55:50;100976.09;;;3.63;26.24
74578;BME280;75151;49.086;33.418;2024-03-08T12:58:17;100978.06;;;3.05;28.34
74578;BME280;75151;49.086;33.418;2024-03-08T13:00:44;100972.97;;;3.51;28.12